sensor_id;sensor_type;location;lat;lon;timestamp;pressure;altitude;pressure_sealevel;temperature;humidity
62978;BME280;49073;42.352;23.808;2023-02-10T00:02:32;96462.03;;;-8.19;73.10
62978;BME280;49073;42.352;23.808;2023-02-10T00:05:32;96465.88;;;-8.37;74.03
62978;BME280;49073;42.352;23.808;2023-02-10T00:08:33;96461.38;;;-8.28;74.02
62978;BME280;49073;42.352;23.808;2023-02-10T00:11:34;96466.59;;;-8.21;73.92
62978;BME280;49073;42.352;23.808;2023-02-10T00:14:53;96467.00;;;-8.18;73.29
62978;BME280;49073;42.352;23.808;2023-02-10T00:17:54;96463.66;;;-8.18;73.13
62978;BME280;49073;42.352;23.808;2023-02-10T00:20:55;96472.38;;;-8.19;73.06
62978;BME280;49073;42.352;23.808;2023-02-10T00:23:55;96469.00;;;-8.20;73.03
62978;BME280;49073;42.352;23.808;2023-02-10T00:26:56;96466.84;;;-8.16;72.51
62978;BME280;49073;42.352;23.808;2023-02-10T00:29:57;96461.38;;;-8.28;72.76
62978;BME280;49073;42.352;23.808;2023-02-10T00:32:58;96457.88;;;-8.20;72.57
62978;BME280;49073;42.352;23.808;2023-02-10T00:35:58;96458.78;;;-8.28;72.46
62978;BME280;49073;42.352;23.808;2023-02-10T00:38:59;96453.56;;;-8.35;72.56
62978;BME280;49073;42.352;23.808;2023-02-10T00:41:59;96454.63;;;-8.29;71.71
62978;BME280;49073;42.352;23.808;2023-02-10T00:45:00;96448.53;;;-8.43;71.65
62978;BME280;49073;42.352;23.808;2023-02-10T00:48:00;96454.44;;;-8.56;72.00
62978;BME280;49073;42.352;23.808;2023-02-10T00:51:01;96450.78;;;-8.68;72.49
62978;BME280;49073;42.352;23.808;2023-02-10T00:54:02;96441.25;;;-8.68;72.92
62978;BME280;49073;42.352;23.808;2023-02-10T00:57:03;96437.84;;;-8.68;73.48
62978;BME280;49073;42.352;23.808;2023-02-10T01:00:04;96445.19;;;-8.72;73.88
62978;BME280;49073;42.352;23.808;2023-02-10T01:03:05;96443.06;;;-8.62;73.71
62978;BME280;49073;42.352;23.808;2023-02-10T01:06:06;96445.34;;;-8.52;73.13
62978;BME280;49073;42.352;23.808;2023-02-10T01:09:07;96441.78;;;-8.44;72.50
62978;BME280;49073;42.352;23.808;2023-02-10T01:12:07;96447.50;;;-8.55;72.31
62978;BME280;49073;42.352;23.808;2023-02-10T01:15:08;96442.03;;;-8.67;72.83
62978;BME280;49073;42.352;23.808;2023-02-10T01:18:08;96448.25;;;-8.62;72.60
62978;BME280;49073;42.352;23.808;2023-02-10T01:21:15;96448.25;;;-8.62;72.55
62978;BME280;49073;42.352;23.808;2023-02-10T01:24:15;96443.81;;;-8.68;72.26
62978;BME280;49073;42.352;23.808;2023-02-10T01:27:17;96448.16;;;-8.75;72.21
62978;BME280;49073;42.352;23.808;2023-02-10T01:30:17;96439.72;;;-8.84;72.03
62978;BME280;49073;42.352;23.808;2023-02-10T01:33:18;96436.22;;;-8.98;72.56
62978;BME280;49073;42.352;23.808;2023-02-10T01:36:21;96434.75;;;-9.07;72.95
62978;BME280;49073;42.352;23.808;2023-02-10T01:39:22;96438.75;;;-9.04;74.39
62978;BME280;49073;42.352;23.808;2023-02-10T01:42:23;96432.88;;;-8.92;74.35
62978;BME280;49073;42.352;23.808;2023-02-10T01:45:41;96431.13;;;-8.91;73.76
62978;BME280;49073;42.352;23.808;2023-02-10T01:48:42;96425.34;;;-8.93;73.63
62978;BME280;49073;42.352;23.808;2023-02-10T01:51:52;96428.06;;;-9.01;73.39
62978;BME280;49073;42.352;23.808;2023-02-10T01:55:03;96427.09;;;-8.94;73.50
62978;BME280;49073;42.352;23.808;2023-02-10T01:58:07;96420.81;;;-8.84;72.20
62978;BME280;49073;42.352;23.808;2023-02-10T02:01:09;96424.91;;;-8.97;72.47
62978;BME280;49073;42.352;23.808;2023-02-10T02:04:09;96409.66;;;-9.13;73.44
62978;BME280;49073;42.352;23.808;2023-02-10T02:07:10;96410.38;;;-8.98;72.70
62978;BME280;49073;42.352;23.808;2023-02-10T02:10:11;96399.56;;;-9.08;73.14
62978;BME280;49073;42.352;23.808;2023-02-10T02:13:45;96398.59;;;-9.07;72.55
62978;BME280;49073;42.352;23.808;2023-02-10T02:20:35;96388.78;;;-9.40;73.19
62978;BME280;49073;42.352;23.808;2023-02-10T02:37:33;96369.19;;;-9.50;74.03
62978;BME280;49073;42.352;23.808;2023-02-10T02:40:36;96363.06;;;-9.48;74.19
62978;BME280;49073;42.352;23.808;2023-02-10T02:43:38;96363.50;;;-9.45;73.81
62978;BME280;49073;42.352;23.808;2023-02-10T02:53:45;96363.19;;;-9.57;73.26
62978;BME280;49073;42.352;23.808;2023-02-10T03:00:20;96374.19;;;-9.48;74.16
62978;BME280;49073;42.352;23.808;2023-02-10T03:03:24;96380.03;;;-9.39;73.79
62978;BME280;49073;42.352;23.808;2023-02-10T03:06:24;96373.28;;;-9.40;73.06
62978;BME280;49073;42.352;23.808;2023-02-10T03:09:26;96371.56;;;-9.33;72.16
62978;BME280;49073;42.352;23.808;2023-02-10T03:12:27;96369.72;;;-9.39;72.06
62978;BME280;49073;42.352;23.808;2023-02-10T03:15:28;96365.25;;;-9.45;72.04
62978;BME280;49073;42.352;23.808;2023-02-10T03:18:31;96365.25;;;-9.45;72.22
62978;BME280;49073;42.352;23.808;2023-02-10T03:21:31;96365.03;;;-9.51;72.51
62978;BME280;49073;42.352;23.808;2023-02-10T03:24:32;96360.59;;;-9.57;72.46
62978;BME280;49073;42.352;23.808;2023-02-10T03:27:33;96364.16;;;-9.58;72.55
62978;BME280;49073;42.352;23.808;2023-02-10T03:30:33;96364.53;;;-9.61;72.55
62978;BME280;49073;42.352;23.808;2023-02-10T03:33:35;96359.81;;;-9.57;72.71
62978;BME280;49073;42.352;23.808;2023-02-10T03:36:35;96367.97;;;-9.54;72.28
62978;BME280;49073;42.352;23.808;2023-02-10T03:39:36;96364.84;;;-9.49;72.08
62978;BME280;49073;42.352;23.808;2023-02-10T03:42:37;96355.69;;;-9.52;71.62
62978;BME280;49073;42.352;23.808;2023-02-10T03:45:38;96347.31;;;-9.54;71.49
62978;BME280;49073;42.352;23.808;2023-02-10T03:48:38;96348.44;;;-9.63;72.03
62978;BME280;49073;42.352;23.808;2023-02-10T03:51:39;96342.28;;;-9.62;72.03
62978;BME280;49073;42.352;23.808;2023-02-10T03:54:39;96343.84;;;-9.68;72.51
62978;BME280;49073;42.352;23.808;2023-02-10T03:57:41;96338.47;;;-9.66;71.87
62978;BME280;49073;42.352;23.808;2023-02-10T04:00:41;96330.84;;;-9.74;72.22
62978;BME280;49073;42.352;23.808;2023-02-10T04:03:42;96329.50;;;-9.92;72.11
62978;BME280;49073;42.352;23.808;2023-02-10T04:06:42;96338.84;;;-9.69;71.95
62978;BME280;49073;42.352;23.808;2023-02-10T04:09:43;96336.03;;;-9.74;72.47
62978;BME280;49073;42.352;23.808;2023-02-10T04:12:44;96333.56;;;-9.83;72.54
62978;BME280;49073;42.352;23.808;2023-02-10T04:15:45;96336.09;;;-9.68;72.00
62978;BME280;49073;42.352;23.808;2023-02-10T04:18:45;96324.84;;;-9.82;71.56
62978;BME280;49073;42.352;23.808;2023-02-10T04:21:46;96334.41;;;-9.97;72.03
62978;BME280;49073;42.352;23.808;2023-02-10T04:24:48;96341.22;;;-10.04;72.07
62978;BME280;49073;42.352;23.808;2023-02-10T04:27:48;96334.81;;;-9.94;72.70
62978;BME280;49073;42.352;23.808;2023-02-10T04:30:57;96332.53;;;-10.03;72.52
62978;BME280;49073;42.352;23.808;2023-02-10T04:33:59;96333.84;;;-9.93;72.14
62978;BME280;49073;42.352;23.808;2023-02-10T04:37:00;96328.72;;;-10.08;72.29
62978;BME280;49073;42.352;23.808;2023-02-10T04:40:01;96337.59;;;-9.95;72.13
62978;BME280;49073;42.352;23.808;2023-02-10T04:43:01;96330.72;;;-9.88;71.96
62978;BME280;49073;42.352;23.808;2023-02-10T04:46:03;96328.16;;;-9.88;71.28
62978;BME280;49073;42.352;23.808;2023-02-10T04:49:04;96332.81;;;-9.98;71.86
62978;BME280;49073;42.352;23.808;2023-02-10T04:52:04;96336.91;;;-10.04;71.62
62978;BME280;49073;42.352;23.808;2023-02-10T04:55:05;96343.38;;;-10.08;72.61
62978;BME280;49073;42.352;23.808;2023-02-10T04:58:05;96351.28;;;-10.10;72.95
62978;BME280;49073;42.352;23.808;2023-02-10T05:01:07;96356.28;;;-10.08;72.60
62978;BME280;49073;42.352;23.808;2023-02-10T05:04:08;96355.84;;;-10.12;72.05
62978;BME280;49073;42.352;23.808;2023-02-10T05:07:08;96351.84;;;-10.14;72.02
62978;BME280;49073;42.352;23.808;2023-02-10T05:10:09;96354.31;;;-10.06;71.22
62978;BME280;49073;42.352;23.808;2023-02-10T05:13:09;96360.13;;;-10.19;70.81
62978;BME280;49073;42.352;23.808;2023-02-10T05:16:11;96358.09;;;-10.24;71.33
62978;BME280;49073;42.352;23.808;2023-02-10T05:19:12;96362.88;;;-10.35;71.66
62978;BME280;49073;42.352;23.808;2023-02-10T05:22:13;96367.69;;;-10.32;71.81
62978;BME280;49073;42.352;23.808;2023-02-10T05:25:14;96366.09;;;-10.33;71.78
62978;BME280;49073;42.352;23.808;2023-02-10T05:28:14;96365.38;;;-10.27;71.63
62978;BME280;49073;42.352;23.808;2023-02-10T05:31:15;96366.97;;;-10.26;71.94
62978;BME280;49073;42.352;23.808;2023-02-10T05:34:16;96377.19;;;-10.18;71.64
62978;BME280;49073;42.352;23.808;2023-02-10T05:37:17;96372.75;;;-10.24;72.28
62978;BME280;49073;42.352;23.808;2023-02-10T05:40:18;96370.88;;;-10.15;71.97
62978;BME280;49073;42.352;23.808;2023-02-10T05:43:18;96373.97;;;-10.20;72.29
62978;BME280;49073;42.352;23.808;2023-02-10T05:46:19;96372.38;;;-10.21;72.69
62978;BME280;49073;42.352;23.808;2023-02-10T05:49:20;96383.56;;;-10.14;72.90
62978;BME280;49073;42.352;23.808;2023-02-10T05:52:20;96377.88;;;-10.09;72.56
62978;BME280;49073;42.352;23.808;2023-02-10T05:55:21;96381.69;;;-9.90;72.32
62978;BME280;49073;42.352;23.808;2023-02-10T05:58:21;96382.09;;;-9.86;72.70
62978;BME280;49073;42.352;23.808;2023-02-10T06:01:22;96387.06;;;-9.70;73.12
62978;BME280;49073;42.352;23.808;2023-02-10T06:04:22;96381.56;;;-9.67;73.63
62978;BME280;49073;42.352;23.808;2023-02-10T06:07:23;96391.25;;;-9.69;73.60
62978;BME280;49073;42.352;23.808;2023-02-10T06:10:23;96385.81;;;-9.74;74.09
62978;BME280;49073;42.352;23.808;2023-02-10T06:13:24;96388.63;;;-9.54;74.07
62978;BME280;49073;42.352;23.808;2023-02-10T06:16:25;96391.97;;;-9.38;74.70
62978;BME280;49073;42.352;23.808;2023-02-10T06:19:26;96395.25;;;-9.44;75.16
62978;BME280;49073;42.352;23.808;2023-02-10T06:22:27;96403.34;;;-9.47;75.55
62978;BME280;49073;42.352;23.808;2023-02-10T06:25:28;96400.50;;;-9.38;75.80
62978;BME280;49073;42.352;23.808;2023-02-10T06:28:28;96393.59;;;-9.30;76.15
62978;BME280;49073;42.352;23.808;2023-02-10T06:31:29;96404.94;;;-9.10;76.48
62978;BME280;49073;42.352;23.808;2023-02-10T06:34:29;96403.25;;;-8.96;76.82
62978;BME280;49073;42.352;23.808;2023-02-10T06:37:30;96404.38;;;-8.83;76.66
62978;BME280;49073;42.352;23.808;2023-02-10T06:40:31;96411.97;;;-8.75;76.55
62978;BME280;49073;42.352;23.808;2023-02-10T06:43:32;96416.56;;;-8.70;76.59
62978;BME280;49073;42.352;23.808;2023-02-10T06:46:33;96408.13;;;-8.57;76.20
62978;BME280;49073;42.352;23.808;2023-02-10T06:49:34;96404.59;;;-8.43;76.02
62978;BME280;49073;42.352;23.808;2023-02-10T06:52:35;96410.44;;;-8.27;75.77
62978;BME280;49073;42.352;23.808;2023-02-10T06:55:38;96412.09;;;-8.20;75.65
62978;BME280;49073;42.352;23.808;2023-02-10T06:58:38;96414.50;;;-8.18;75.81
62978;BME280;49073;42.352;23.808;2023-02-10T07:01:39;96409.63;;;-7.99;76.11
62978;BME280;49073;42.352;23.808;2023-02-10T07:04:40;96417.59;;;-7.94;75.15
62978;BME280;49073;42.352;23.808;2023-02-10T07:07:40;96413.69;;;-7.77;74.87
62978;BME280;49073;42.352;23.808;2023-02-10T07:10:41;96414.50;;;-7.69;75.12
62978;BME280;49073;42.352;23.808;2023-02-10T07:13:41;96422.72;;;-7.52;75.57
62978;BME280;49073;42.352;23.808;2023-02-10T07:16:42;96413.59;;;-7.55;74.67
62978;BME280;49073;42.352;23.808;2023-02-10T07:19:43;96427.56;;;-7.42;74.98
62978;BME280;49073;42.352;23.808;2023-02-10T07:22:43;96413.81;;;-7.36;74.64
62978;BME280;49073;42.352;23.808;2023-02-10T07:25:44;96421.81;;;-7.24;74.91
62978;BME280;49073;42.352;23.808;2023-02-10T07:28:44;96410.09;;;-7.07;74.83
62978;BME280;49073;42.352;23.808;2023-02-10T07:31:45;96412.50;;;-6.98;74.12
62978;BME280;49073;42.352;23.808;2023-02-10T07:34:46;96413.09;;;-6.83;73.96
62978;BME280;49073;42.352;23.808;2023-02-10T07:37:46;96409.91;;;-6.65;74.67
62978;BME280;49073;42.352;23.808;2023-02-10T07:40:47;96408.50;;;-6.61;73.71
62978;BME280;49073;42.352;23.808;2023-02-10T07:43:47;96406.69;;;-6.53;73.64
62978;BME280;49073;42.352;23.808;2023-02-10T07:46:48;96419.50;;;-6.45;73.68
62978;BME280;49073;42.352;23.808;2023-02-10T07:49:50;96416.25;;;-6.20;75.47
62978;BME280;49073;42.352;23.808;2023-02-10T07:52:54;96414.06;;;-6.17;74.12
62978;BME280;49073;42.352;23.808;2023-02-10T07:55:57;96407.06;;;-6.23;74.35
62978;BME280;49073;42.352;23.808;2023-02-10T07:58:58;96410.25;;;-6.07;75.41
62978;BME280;49073;42.352;23.808;2023-02-10T08:01:59;96405.38;;;-5.97;73.79
62978;BME280;49073;42.352;23.808;2023-02-10T08:04:59;96406.94;;;-5.89;72.42
62978;BME280;49073;42.352;23.808;2023-02-10T08:08:00;96399.47;;;-5.59;72.17
62978;BME280;49073;42.352;23.808;2023-02-10T08:11:05;96394.81;;;-5.50;71.91
62978;BME280;49073;42.352;23.808;2023-02-10T08:14:05;96390.91;;;-5.27;71.81
62978;BME280;49073;42.352;23.808;2023-02-10T08:17:06;96387.38;;;-5.07;71.24
62978;BME280;49073;42.352;23.808;2023-02-10T08:20:07;96389.56;;;-4.79;71.02
62978;BME280;49073;42.352;23.808;2023-02-10T08:23:14;96383.19;;;-4.58;70.28
62978;BME280;49073;42.352;23.808;2023-02-10T08:26:15;96380.34;;;-4.31;68.90
62978;BME280;49073;42.352;23.808;2023-02-10T08:29:15;96376.53;;;-4.10;67.68
62978;BME280;49073;42.352;23.808;2023-02-10T08:32:17;96373.75;;;-3.96;66.51
62978;BME280;49073;42.352;23.808;2023-02-10T08:35:19;96382.59;;;-3.78;65.36
62978;BME280;49073;42.352;23.808;2023-02-10T08:38:20;96374.31;;;-3.57;64.99
62978;BME280;49073;42.352;23.808;2023-02-10T08:41:20;96374.50;;;-3.40;62.73
62978;BME280;49073;42.352;23.808;2023-02-10T08:44:21;96369.88;;;-3.26;63.32
62978;BME280;49073;42.352;23.808;2023-02-10T08:47:21;96376.84;;;-3.08;60.71
62978;BME280;49073;42.352;23.808;2023-02-10T08:50:22;96378.09;;;-2.98;59.51
62978;BME280;49073;42.352;23.808;2023-02-10T08:53:24;96373.50;;;-2.84;59.21
62978;BME280;49073;42.352;23.808;2023-02-10T08:56:24;96375.88;;;-2.83;58.12
62978;BME280;49073;42.352;23.808;2023-02-10T08:59:25;96370.22;;;-2.68;57.12
62978;BME280;49073;42.352;23.808;2023-02-10T09:02:26;96375.22;;;-2.66;57.67
62978;BME280;49073;42.352;23.808;2023-02-10T09:05:27;96376.13;;;-2.60;59.16
62978;BME280;49073;42.352;23.808;2023-02-10T09:08:27;96372.84;;;-2.44;58.64
62978;BME280;49073;42.352;23.808;2023-02-10T09:11:28;96370.00;;;-2.30;57.04
62978;BME280;49073;42.352;23.808;2023-02-10T09:14:30;96365.69;;;-2.25;56.46
62978;BME280;49073;42.352;23.808;2023-02-10T09:17:31;96370.88;;;-2.13;56.08
62978;BME280;49073;42.352;23.808;2023-02-10T09:20:32;96361.66;;;-1.92;54.60
62978;BME280;49073;42.352;23.808;2023-02-10T09:23:32;96360.34;;;-1.77;54.93
62978;BME280;49073;42.352;23.808;2023-02-10T09:26:33;96363.09;;;-1.72;53.56
62978;BME280;49073;42.352;23.808;2023-02-10T09:29:34;96358.63;;;-1.13;54.78
62978;BME280;49073;42.352;23.808;2023-02-10T09:32:34;96353.41;;;-0.96;53.14
62978;BME280;49073;42.352;23.808;2023-02-10T09:35:35;96359.81;;;-1.04;52.21
62978;BME280;49073;42.352;23.808;2023-02-10T09:38:36;96351.91;;;-0.92;51.93
62978;BME280;49073;42.352;23.808;2023-02-10T09:44:42;96340.97;;;-0.72;50.94
62978;BME280;49073;42.352;23.808;2023-02-10T09:47:49;96340.72;;;-0.53;50.83
62978;BME280;49073;42.352;23.808;2023-02-10T09:51:50;96332.22;;;-0.43;49.94
62978;BME280;49073;42.352;23.808;2023-02-10T09:54:27;96331.94;;;-0.42;50.16
62978;BME280;49073;42.352;23.808;2023-02-10T09:57:37;96324.03;;;-0.08;49.48
62978;BME280;49073;42.352;23.808;2023-02-10T10:00:42;96321.75;;;0.23;48.90
62978;BME280;49073;42.352;23.808;2023-02-10T10:03:47;96314.44;;;0.25;48.17
62978;BME280;49073;42.352;23.808;2023-02-10T10:07:50;96312.13;;;0.29;48.49
62978;BME280;49073;42.352;23.808;2023-02-10T10:10:26;96312.44;;;0.10;48.57
62978;BME280;49073;42.352;23.808;2023-02-10T10:13:29;96302.69;;;0.55;49.07
62978;BME280;49073;42.352;23.808;2023-02-10T10:16:42;96294.00;;;0.55;48.19
62978;BME280;49073;42.352;23.808;2023-02-10T10:26:15;96289.97;;;0.42;47.60
62978;BME280;49073;42.352;23.808;2023-02-10T10:29:41;96281.56;;;0.40;47.88
62978;BME280;49073;42.352;23.808;2023-02-10T10:32:55;96275.56;;;0.77;47.15
62978;BME280;49073;42.352;23.808;2023-02-10T10:35:59;96272.56;;;0.91;46.89
62978;BME280;49073;42.352;23.808;2023-02-10T10:42:52;96273.25;;;0.81;45.98
62978;BME280;49073;42.352;23.808;2023-02-10T10:46:10;96266.50;;;0.90;45.17
62978;BME280;49073;42.352;23.808;2023-02-10T10:49:12;96273.88;;;1.36;45.24
62978;BME280;49073;42.352;23.808;2023-02-10T10:59:36;96256.41;;;1.63;44.89
62978;BME280;49073;42.352;23.808;2023-02-10T11:03:01;96253.44;;;2.02;44.69
62978;BME280;49073;42.352;23.808;2023-02-10T11:06:07;96246.38;;;2.28;43.77
62978;BME280;49073;42.352;23.808;2023-02-10T11:09:34;96249.28;;;2.27;43.09
62978;BME280;49073;42.352;23.808;2023-02-10T11:12:39;96235.56;;;2.09;42.74
62978;BME280;49073;42.352;23.808;2023-02-10T11:15:42;96234.53;;;2.26;43.46
62978;BME280;49073;42.352;23.808;2023-02-10T11:19:00;96233.47;;;2.11;43.48
62978;BME280;49073;42.352;23.808;2023-02-10T11:22:01;96229.28;;;2.21;42.80
62978;BME280;49073;42.352;23.808;2023-02-10T11:28:26;96218.50;;;2.38;41.11
62978;BME280;49073;42.352;23.808;2023-02-10T11:31:31;96208.00;;;2.32;40.95
62978;BME280;49073;42.352;23.808;2023-02-10T11:34:54;96201.41;;;2.35;40.74
62978;BME280;49073;42.352;23.808;2023-02-10T11:37:59;96211.44;;;2.43;40.94
62978;BME280;49073;42.352;23.808;2023-02-10T11:41:04;96194.84;;;2.32;40.52
62978;BME280;49073;42.352;23.808;2023-02-10T11:44:22;96191.69;;;2.36;39.47
62978;BME280;49073;42.352;23.808;2023-02-10T11:47:27;96198.81;;;2.40;39.20
62978;BME280;49073;42.352;23.808;2023-02-10T11:50:32;96200.91;;;2.59;40.53
62978;BME280;49073;42.352;23.808;2023-02-10T11:53:37;96193.47;;;3.13;40.01
62978;BME280;49073;42.352;23.808;2023-02-10T12:06:47;96173.50;;;2.96;37.70
62978;BME280;49073;42.352;23.808;2023-02-10T12:09:57;96167.94;;;3.08;39.18
62978;BME280;49073;42.352;23.808;2023-02-10T12:20:04;96152.06;;;3.34;36.62
62978;BME280;49073;42.352;23.808;2023-02-10T12:23:34;96143.94;;;3.20;35.09
62978;BME280;49073;42.352;23.808;2023-02-10T12:26:39;96143.78;;;3.51;36.77
62978;BME280;49073;42.352;23.808;2023-02-10T12:30:13;96145.84;;;3.70;36.14
62978;BME280;49073;42.352;23.808;2023-02-10T12:33:45;96147.94;;;3.73;34.72
62978;BME280;49073;42.352;23.808;2023-02-10T12:40:23;96145.91;;;3.49;33.86
62978;BME280;49073;42.352;23.808;2023-02-10T12:49:56;96131.00;;;3.24;35.67
62978;BME280;49073;42.352;23.808;2023-02-10T12:53:19;96126.16;;;3.52;34.89
62978;BME280;49073;42.352;23.808;2023-02-10T12:56:31;96120.03;;;3.61;33.89
62978;BME280;49073;42.352;23.808;2023-02-10T12:59:38;96124.81;;;3.49;33.83
62978;BME280;49073;42.352;23.808;2023-02-10T13:03:18;96127.72;;;3.53;33.99
62978;BME280;49073;42.352;23.808;2023-02-10T13:06:37;96130.06;;;3.59;33.37
62978;BME280;49073;42.352;23.808;2023-02-10T13:09:45;96136.16;;;3.55;32.92
62978;BME280;49073;42.352;23.808;2023-02-10T13:12:48;96125.63;;;3.49;32.66
62978;BME280;49073;42.352;23.808;2023-02-10T13:15:59;96127.81;;;3.37;31.96
62978;BME280;49073;42.352;23.808;2023-02-10T13:19:05;96123.72;;;3.66;34.02
62978;BME280;49073;42.352;23.808;2023-02-10T13:22:15;96129.28;;;3.54;34.90
62978;BME280;49073;42.352;23.808;2023-02-10T13:25:28;96126.41;;;3.55;33.29
62978;BME280;49073;42.352;23.808;2023-02-10T13:32:33;96110.25;;;3.67;33.35
62978;BME280;49073;42.352;23.808;2023-02-10T13:35:41;96121.56;;;3.73;33.83
62978;BME280;49073;42.352;23.808;2023-02-10T13:38:43;96118.41;;;3.71;33.87
62978;BME280;49073;42.352;23.808;2023-02-10T13:41:46;96119.75;;;3.63;33.34
62978;BME280;49073;42.352;23.808;2023-02-10T13:44:57;96113.97;;;3.61;34.09
62978;BME280;49073;42.352;23.808;2023-02-10T13:48:01;96116.75;;;3.35;32.92
62978;BME280;49073;42.352;23.808;2023-02-10T13:51:06;96101.75;;;3.25;34.14
62978;BME280;49073;42.352;23.808;2023-02-10T13:54:26;96113.72;;;2.97;33.01
62978;BME280;49073;42.352;23.808;2023-02-10T13:57:33;96115.53;;;3.07;33.48
62978;BME280;49073;42.352;23.808;2023-02-10T14:00:53;96110.19;;;3.22;33.06
62978;BME280;49073;42.352;23.808;2023-02-10T14:03:55;96112.91;;;3.07;32.99
62978;BME280;49073;42.352;23.808;2023-02-10T14:06:56;96111.88;;;2.97;33.48
62978;BME280;49073;42.352;23.808;2023-02-10T14:13:22;96116.94;;;2.62;32.99
62978;BME280;49073;42.352;23.808;2023-02-10T14:16:34;96111.66;;;2.62;33.63
62978;BME280;49073;42.352;23.808;2023-02-10T14:19:38;96108.53;;;2.71;34.36
62978;BME280;49073;42.352;23.808;2023-02-10T14:22:39;96110.63;;;2.69;34.08
62978;BME280;49073;42.352;23.808;2023-02-10T14:25:40;96117.22;;;2.56;33.77
62978;BME280;49073;42.352;23.808;2023-02-10T14:28:42;96111.94;;;2.61;33.66
62978;BME280;49073;42.352;23.808;2023-02-10T14:31:52;96114.03;;;2.69;34.37
62978;BME280;49073;42.352;23.808;2023-02-10T14:34:58;96112.19;;;2.59;34.68
62978;BME280;49073;42.352;23.808;2023-02-10T14:37:59;96119.84;;;2.61;35.60
62978;BME280;49073;42.352;23.808;2023-02-10T14:41:00;96118.31;;;2.39;35.66
62978;BME280;49073;42.352;23.808;2023-02-10T14:44:03;96119.59;;;2.31;35.92
62978;BME280;49073;42.352;23.808;2023-02-10T14:47:03;96118.81;;;2.21;36.84
62978;BME280;49073;42.352;23.808;2023-02-10T14:50:05;96125.66;;;2.16;37.55
62978;BME280;49073;42.352;23.808;2023-02-10T14:53:14;96124.06;;;2.10;37.94
62978;BME280;49073;42.352;23.808;2023-02-10T14:56:21;96127.75;;;1.99;37.88
62978;BME280;49073;42.352;23.808;2023-02-10T14:59:28;96116.16;;;1.84;38.98
62978;BME280;49073;42.352;23.808;2023-02-10T15:02:30;96134.53;;;1.74;38.78
62978;BME280;49073;42.352;23.808;2023-02-10T15:05:52;96135.81;;;1.51;39.67
62978;BME280;49073;42.352;23.808;2023-02-10T15:09:05;96132.66;;;1.49;39.54
62978;BME280;49073;42.352;23.808;2023-02-10T15:12:09;96139.19;;;1.46;40.29
62978;BME280;49073;42.352;23.808;2023-02-10T15:18:45;96134.31;;;1.12;41.73
62978;BME280;49073;42.352;23.808;2023-02-10T15:21:47;96137.38;;;0.93;40.96
62978;BME280;49073;42.352;23.808;2023-02-10T15:24:49;96139.75;;;0.90;41.47
62978;BME280;49073;42.352;23.808;2023-02-10T15:27:50;96138.13;;;0.83;41.84
62978;BME280;49073;42.352;23.808;2023-02-10T15:31:29;96147.22;;;0.65;41.31
62978;BME280;49073;42.352;23.808;2023-02-10T15:34:28;96141.13;;;0.60;41.19
62978;BME280;49073;42.352;23.808;2023-02-10T15:37:28;96144.97;;;0.47;41.32
62978;BME280;49073;42.352;23.808;2023-02-10T15:40:32;96147.56;;;0.41;41.46
62978;BME280;49073;42.352;23.808;2023-02-10T15:43:33;96141.78;;;0.39;41.52
62978;BME280;49073;42.352;23.808;2023-02-10T15:46:35;96150.13;;;0.36;42.05
62978;BME280;49073;42.352;23.808;2023-02-10T15:49:36;96152.25;;;0.39;41.78
62978;BME280;49073;42.352;23.808;2023-02-10T15:52:45;96152.09;;;0.19;43.99
62978;BME280;49073;42.352;23.808;2023-02-10T15:55:47;96155.41;;;-0.19;45.59
62978;BME280;49073;42.352;23.808;2023-02-10T15:58:49;96164.41;;;-0.37;47.22
62978;BME280;49073;42.352;23.808;2023-02-10T16:01:51;96162.44;;;-0.52;48.83
62978;BME280;49073;42.352;23.808;2023-02-10T16:04:51;96172.63;;;-0.73;49.03
62978;BME280;49073;42.352;23.808;2023-02-10T16:07:52;96181.19;;;-0.82;49.69
62978;BME280;49073;42.352;23.808;2023-02-10T16:10:55;96191.00;;;-1.12;50.49
62978;BME280;49073;42.352;23.808;2023-02-10T16:13:55;96189.06;;;-1.17;50.70
62978;BME280;49073;42.352;23.808;2023-02-10T16:16:57;96192.03;;;-1.30;52.81
62978;BME280;49073;42.352;23.808;2023-02-10T16:19:59;96197.56;;;-1.61;53.44
62978;BME280;49073;42.352;23.808;2023-02-10T16:22:59;96200.88;;;-1.65;53.13
62978;BME280;49073;42.352;23.808;2023-02-10T16:26:00;96210.75;;;-1.84;53.62
62978;BME280;49073;42.352;23.808;2023-02-10T16:29:02;96211.88;;;-1.97;55.82
62978;BME280;49073;42.352;23.808;2023-02-10T16:32:02;96213.53;;;-1.91;54.62
62978;BME280;49073;42.352;23.808;2023-02-10T16:35:03;96220.22;;;-2.12;53.91
62978;BME280;49073;42.352;23.808;2023-02-10T16:38:04;96219.41;;;-2.13;54.60
62978;BME280;49073;42.352;23.808;2023-02-10T16:41:05;96222.09;;;-2.37;55.80
62978;BME280;49073;42.352;23.808;2023-02-10T16:44:05;96226.66;;;-2.44;56.08
62978;BME280;49073;42.352;23.808;2023-02-10T16:47:06;96227.91;;;-2.46;56.93
62978;BME280;49073;42.352;23.808;2023-02-10T16:50:24;96222.22;;;-2.43;55.64
62978;BME280;49073;42.352;23.808;2023-02-10T16:53:26;96230.56;;;-2.70;57.46
62978;BME280;49073;42.352;23.808;2023-02-10T16:56:26;96231.25;;;-2.75;59.25
62978;BME280;49073;42.352;23.808;2023-02-10T16:59:28;96235.38;;;-2.91;59.42
62978;BME280;49073;42.352;23.808;2023-02-10T17:02:31;96233.88;;;-2.99;58.62
62978;BME280;49073;42.352;23.808;2023-02-10T17:05:32;96239.91;;;-3.10;58.25
62978;BME280;49073;42.352;23.808;2023-02-10T17:08:33;96236.50;;;-3.23;59.95
62978;BME280;49073;42.352;23.808;2023-02-10T17:11:34;96232.63;;;-3.44;59.95
62978;BME280;49073;42.352;23.808;2023-02-10T17:14:34;96230.75;;;-3.55;59.91
62978;BME280;49073;42.352;23.808;2023-02-10T17:17:35;96234.75;;;-3.53;59.89
62978;BME280;49073;42.352;23.808;2023-02-10T17:20:36;96238.50;;;-3.48;58.86
62978;BME280;49073;42.352;23.808;2023-02-10T17:23:37;96249.44;;;-3.58;59.70
62978;BME280;49073;42.352;23.808;2023-02-10T17:26:38;96247.50;;;-3.75;62.03
62978;BME280;49073;42.352;23.808;2023-02-10T17:29:46;96243.09;;;-3.74;61.36
62978;BME280;49073;42.352;23.808;2023-02-10T17:32:47;96243.13;;;-3.93;62.10
62978;BME280;49073;42.352;23.808;2023-02-10T17:35:48;96246.75;;;-3.94;61.62